sensor_id;sensor_type;location;lat;lon;timestamp;pressure;altitude;pressure_sealevel;temperature;humidity
28027;BME280;15344;52.342;-1.290;2023-05-12T00:02:16;100681.54;;;16.12;67.49
28027;BME280;15344;52.342;-1.290;2023-05-12T00:04:41;100683.21;;;15.18;73.99
28027;BME280;15344;52.342;-1.290;2023-05-12T00:07:07;100683.37;;;14.67;78.46
28027;BME280;15344;52.342;-1.290;2023-05-12T00:09:32;100686.65;;;15.54;78.87
28027;BME280;15344;52.342;-1.290;2023-05-12T00:11:57;100688.33;;;15.00;84.13
28027;BME280;15344;52.342;-1.290;2023-05-12T00:14:22;100691.93;;;15.11;84.64
28027;BME280;15344;52.342;-1.290;2023-05-12T00:16:47;100692.12;;;14.75;87.90
28027;BME280;15344;52.342;-1.290;2023-05-12T00:19:13;100699.23;;;14.57;91.70
28027;BME280;15344;52.342;-1.290;2023-05-12T00:21:39;100706.04;;;14.44;94.97
28027;BME280;15344;52.342;-1.290;2023-05-12T00:24:05;100703.15;;;14.95;92.76
28027;BME280;15344;52.342;-1.290;2023-05-12T00:26:29;100704.84;;;15.07;92.49
28027;BME280;15344;52.342;-1.290;2023-05-12T00:28:55;100709.73;;;15.96;88.90
28027;BME280;15344;52.342;-1.290;2023-05-12T00:31:20;100709.66;;;15.85;88.93
28027;BME280;15344;52.342;-1.290;2023-05-12T00:33:46;100712.63;;;15.60;88.15
28027;BME280;15344;52.342;-1.290;2023-05-12T00:36:11;100715.21;;;16.05;88.32
28027;BME280;15344;52.342;-1.290;2023-05-12T00:38:36;100715.32;;;15.18;90.08
28027;BME280;15344;52.342;-1.290;2023-05-12T00:41:02;100716.70;;;16.15;86.74
28027;BME280;15344;52.342;-1.290;2023-05-12T00:43:28;100715.95;;;15.89;88.63
28027;BME280;15344;52.342;-1.290;2023-05-12T00:45:53;100713.93;;;15.73;87.89
28027;BME280;15344;52.342;-1.290;2023-05-12T00:48:19;100714.11;;;15.89;90.87
28027;BME280;15344;52.342;-1.290;2023-05-12T00:50:45;100715.59;;;15.98;87.81
28027;BME280;15344;52.342;-1.290;2023-05-12T00:53:12;100717.09;;;16.36;87.36
28027;BME280;15344;52.342;-1.290;2023-05-12T00:55:36;100718.79;;;16.26;86.40
28027;BME280;15344;52.342;-1.290;2023-05-12T00:58:02;100713.84;;;16.52;84.97
28027;BME280;15344;52.342;-1.290;2023-05-12T01:00:27;100715.99;;;15.95;87.98
28027;BME280;15344;52.342;-1.290;2023-05-12T01:02:52;100718.77;;;15.82;89.12
28027;BME280;15344;52.342;-1.290;2023-05-12T01:05:18;100719.38;;;15.94;91.31
28027;BME280;15344;52.342;-1.290;2023-05-12T01:07:45;100717.09;;;15.81;91.26
28027;BME280;15344;52.342;-1.290;2023-05-12T01:10:16;100720.43;;;15.96;89.16
28027;BME280;15344;52.342;-1.290;2023-05-12T01:12:34;100722.86;;;15.35;91.88
28027;BME280;15344;52.342;-1.290;2023-05-12T01:15:00;100725.61;;;15.44;92.46
28027;BME280;15344;52.342;-1.290;2023-05-12T01:17:28;100731.99;;;15.52;93.52
28027;BME280;15344;52.342;-1.290;2023-05-12T01:19:53;100732.68;;;15.10;96.82
28027;BME280;15344;52.342;-1.290;2023-05-12T01:22:17;100731.50;;;14.51;97.74
28027;BME280;15344;52.342;-1.290;2023-05-12T01:24:47;100732.29;;;13.89;100.00
28027;BME280;15344;52.342;-1.290;2023-05-12T01:27:08;100734.78;;;15.23;97.40
28027;BME280;15344;52.342;-1.290;2023-05-12T01:29:34;100737.16;;;14.93;96.80
28027;BME280;15344;52.342;-1.290;2023-05-12T01:31:59;100735.80;;;15.22;96.31
28027;BME280;15344;52.342;-1.290;2023-05-12T01:34:25;100738.97;;;15.74;94.03
28027;BME280;15344;52.342;-1.290;2023-05-12T01:36:49;100740.11;;;15.12;95.16
28027;BME280;15344;52.342;-1.290;2023-05-12T01:39:15;100741.29;;;15.69;93.00
28027;BME280;15344;52.342;-1.290;2023-05-12T01:41:40;100748.69;;;15.16;94.49
28027;BME280;15344;52.342;-1.290;2023-05-12T01:44:06;100752.53;;;15.20;93.49
28027;BME280;15344;52.342;-1.290;2023-05-12T01:46:31;100751.90;;;15.74;92.14
28027;BME280;15344;52.342;-1.290;2023-05-12T01:48:56;100756.50;;;16.03;90.95
28027;BME280;15344;52.342;-1.290;2023-05-12T01:51:22;100758.24;;;15.67;90.22
28027;BME280;15344;52.342;-1.290;2023-05-12T01:53:47;100763.71;;;15.58;90.05
28027;BME280;15344;52.342;-1.290;2023-05-12T01:56:13;100770.67;;;15.73;90.76
28027;BME280;15344;52.342;-1.290;2023-05-12T01:58:38;100778.76;;;15.18;91.85
28027;BME280;15344;52.342;-1.290;2023-05-12T02:01:03;100775.34;;;15.07;93.60
28027;BME280;15344;52.342;-1.290;2023-05-12T02:03:29;100782.14;;;15.68;89.71
28027;BME280;15344;52.342;-1.290;2023-05-12T02:05:54;100778.28;;;15.78;89.74
28027;BME280;15344;52.342;-1.290;2023-05-12T02:08:20;100781.27;;;15.91;88.38
28027;BME280;15344;52.342;-1.290;2023-05-12T02:10:45;100784.76;;;16.19;86.43
28027;BME280;15344;52.342;-1.290;2023-05-12T02:13:11;100786.73;;;16.02;86.21
28027;BME280;15344;52.342;-1.290;2023-05-12T02:15:36;100786.71;;;15.82;85.67
28027;BME280;15344;52.342;-1.290;2023-05-12T02:18:02;100789.85;;;15.58;85.27
28027;BME280;15344;52.342;-1.290;2023-05-12T02:20:28;100794.96;;;16.21;83.82
28027;BME280;15344;52.342;-1.290;2023-05-12T02:22:54;100790.41;;;15.60;86.01
28027;BME280;15344;52.342;-1.290;2023-05-12T02:25:19;100794.43;;;15.38;86.33
28027;BME280;15344;52.342;-1.290;2023-05-12T02:27:44;100800.54;;;15.36;88.22
28027;BME280;15344;52.342;-1.290;2023-05-12T02:30:10;100799.11;;;16.02;85.86
28027;BME280;15344;52.342;-1.290;2023-05-12T02:32:35;100802.64;;;16.03;85.70
28027;BME280;15344;52.342;-1.290;2023-05-12T02:35:01;100806.12;;;15.70;85.24
28027;BME280;15344;52.342;-1.290;2023-05-12T02:37:26;100804.36;;;15.96;85.64
28027;BME280;15344;52.342;-1.290;2023-05-12T02:39:51;100804.65;;;15.45;85.70
28027;BME280;15344;52.342;-1.290;2023-05-12T02:42:16;100807.49;;;14.68;91.70
28027;BME280;15344;52.342;-1.290;2023-05-12T02:44:41;100805.72;;;15.84;86.76
28027;BME280;15344;52.342;-1.290;2023-05-12T02:47:07;100811.22;;;15.35;86.79
28027;BME280;15344;52.342;-1.290;2023-05-12T02:49:32;100817.74;;;15.16;86.80
28027;BME280;15344;52.342;-1.290;2023-05-12T02:51:57;100817.01;;;15.53;86.25
28027;BME280;15344;52.342;-1.290;2023-05-12T02:54:23;100812.69;;;16.10;83.94
28027;BME280;15344;52.342;-1.290;2023-05-12T02:56:49;100818.72;;;15.90;82.92
28027;BME280;15344;52.342;-1.290;2023-05-12T02:59:14;100819.47;;;15.77;85.14
28027;BME280;15344;52.342;-1.290;2023-05-12T03:01:39;100820.66;;;15.07;86.81
28027;BME280;15344;52.342;-1.290;2023-05-12T03:04:04;100826.67;;;14.92;88.50
28027;BME280;15344;52.342;-1.290;2023-05-12T03:06:29;100825.17;;;15.52;86.68
28027;BME280;15344;52.342;-1.290;2023-05-12T03:08:55;100824.81;;;15.19;87.67
28027;BME280;15344;52.342;-1.290;2023-05-12T03:11:21;100827.98;;;14.71;88.45
28027;BME280;15344;52.342;-1.290;2023-05-12T03:13:46;100829.63;;;15.34;86.42
28027;BME280;15344;52.342;-1.290;2023-05-12T03:16:11;100829.53;;;14.27;91.83
28027;BME280;15344;52.342;-1.290;2023-05-12T03:18:37;100829.81;;;15.32;87.19
28027;BME280;15344;52.342;-1.290;2023-05-12T03:21:02;100830.82;;;15.55;84.92
28027;BME280;15344;52.342;-1.290;2023-05-12T03:23:28;100823.87;;;15.56;84.94
28027;BME280;15344;52.342;-1.290;2023-05-12T03:25:53;100828.98;;;15.71;84.80
28027;BME280;15344;52.342;-1.290;2023-05-12T03:28:19;100824.66;;;16.14;83.25
28027;BME280;15344;52.342;-1.290;2023-05-12T03:30:44;100827.72;;;15.69;84.15
28027;BME280;15344;52.342;-1.290;2023-05-12T03:33:09;100832.11;;;14.92;84.79
28027;BME280;15344;52.342;-1.290;2023-05-12T03:35:35;100833.48;;;15.27;84.39
28027;BME280;15344;52.342;-1.290;2023-05-12T03:38:00;100840.38;;;14.71;86.77
28027;BME280;15344;52.342;-1.290;2023-05-12T03:40:26;100840.90;;;15.42;85.05
28027;BME280;15344;52.342;-1.290;2023-05-12T03:42:51;100842.73;;;15.42;86.79
28027;BME280;15344;52.342;-1.290;2023-05-12T03:45:17;100841.42;;;15.50;84.03
28027;BME280;15344;52.342;-1.290;2023-05-12T03:47:42;100841.90;;;15.36;83.55
28027;BME280;15344;52.342;-1.290;2023-05-12T03:50:08;100845.88;;;16.00;81.50
28027;BME280;15344;52.342;-1.290;2023-05-12T03:52:33;100845.79;;;15.31;82.56
28027;BME280;15344;52.342;-1.290;2023-05-12T03:54:59;100851.18;;;15.18;83.80
28027;BME280;15344;52.342;-1.290;2023-05-12T03:57:25;100857.30;;;14.48;86.83
28027;BME280;15344;52.342;-1.290;2023-05-12T03:59:49;100863.64;;;15.41;83.59
28027;BME280;15344;52.342;-1.290;2023-05-12T04:02:15;100865.04;;;14.88;85.92
28027;BME280;15344;52.342;-1.290;2023-05-12T04:04:41;100869.98;;;15.15;84.05
28027;BME280;15344;52.342;-1.290;2023-05-12T04:07:06;100868.91;;;14.97;85.62
28027;BME280;15344;52.342;-1.290;2023-05-12T04:09:32;100875.81;;;14.89;86.11
28027;BME280;15344;52.342;-1.290;2023-05-12T04:11:57;100871.85;;;14.97;84.32
28027;BME280;15344;52.342;-1.290;2023-05-12T04:14:22;100873.82;;;15.15;84.87
28027;BME280;15344;52.342;-1.290;2023-05-12T04:16:47;100869.15;;;15.51;83.41
28027;BME280;15344;52.342;-1.290;2023-05-12T04:19:13;100867.69;;;15.61;82.72
28027;BME280;15344;52.342;-1.290;2023-05-12T04:21:38;100873.59;;;15.40;82.28
28027;BME280;15344;52.342;-1.290;2023-05-12T04:24:04;100877.58;;;14.86;84.73
28027;BME280;15344;52.342;-1.290;2023-05-12T04:26:29;100882.86;;;14.95;84.91
28027;BME280;15344;52.342;-1.290;2023-05-12T04:28:55;100878.45;;;14.96;85.72
28027;BME280;15344;52.342;-1.290;2023-05-12T04:31:20;100879.43;;;14.06;89.15
28027;BME280;15344;52.342;-1.290;2023-05-12T04:33:45;100881.42;;;14.49;88.74
28027;BME280;15344;52.342;-1.290;2023-05-12T04:36:10;100882.02;;;14.87;85.85
28027;BME280;15344;52.342;-1.290;2023-05-12T04:38:35;100883.78;;;15.08;86.32
28027;BME280;15344;52.342;-1.290;2023-05-12T04:41:01;100882.50;;;14.65;84.99
28027;BME280;15344;52.342;-1.290;2023-05-12T04:43:26;100881.11;;;14.37;86.55
28027;BME280;15344;52.342;-1.290;2023-05-12T04:45:51;100889.22;;;14.38;85.64
28027;BME280;15344;52.342;-1.290;2023-05-12T04:48:17;100888.28;;;14.83;85.04
28027;BME280;15344;52.342;-1.290;2023-05-12T04:50:42;100891.07;;;14.50;86.08
28027;BME280;15344;52.342;-1.290;2023-05-12T04:53:07;100892.31;;;14.54;86.49
28027;BME280;15344;52.342;-1.290;2023-05-12T04:55:32;100896.28;;;14.89;85.75
28027;BME280;15344;52.342;-1.290;2023-05-12T04:57:58;100899.89;;;15.12;84.24
28027;BME280;15344;52.342;-1.290;2023-05-12T05:00:23;100904.34;;;14.80;87.07
28027;BME280;15344;52.342;-1.290;2023-05-12T05:02:48;100902.27;;;14.44;87.44
28027;BME280;15344;52.342;-1.290;2023-05-12T05:05:13;100902.78;;;14.61;86.72
28027;BME280;15344;52.342;-1.290;2023-05-12T05:07:39;100904.13;;;14.99;86.11
28027;BME280;15344;52.342;-1.290;2023-05-12T05:10:05;100903.03;;;14.75;85.69
28027;BME280;15344;52.342;-1.290;2023-05-12T05:12:30;100910.63;;;14.31;89.41
28027;BME280;15344;52.342;-1.290;2023-05-12T05:14:56;100912.20;;;14.63;87.18
28027;BME280;15344;52.342;-1.290;2023-05-12T05:17:21;100918.84;;;13.93;90.66
28027;BME280;15344;52.342;-1.290;2023-05-12T05:19:47;100922.18;;;14.11;91.71
28027;BME280;15344;52.342;-1.290;2023-05-12T05:22:12;100922.47;;;15.14;88.73
28027;BME280;15344;52.342;-1.290;2023-05-12T05:24:37;100922.39;;;14.72;87.90
28027;BME280;15344;52.342;-1.290;2023-05-12T05:27:03;100929.68;;;15.31;85.20
28027;BME280;15344;52.342;-1.290;2023-05-12T05:29:28;100927.12;;;15.29;84.58
28027;BME280;15344;52.342;-1.290;2023-05-12T05:31:54;100929.62;;;14.52;87.07
28027;BME280;15344;52.342;-1.290;2023-05-12T05:34:19;100933.87;;;14.85;86.99
28027;BME280;15344;52.342;-1.290;2023-05-12T05:36:45;100937.22;;;14.26;88.60
28027;BME280;15344;52.342;-1.290;2023-05-12T05:39:10;100940.02;;;15.26;84.12
28027;BME280;15344;52.342;-1.290;2023-05-12T05:41:36;100948.11;;;14.89;85.40
28027;BME280;15344;52.342;-1.290;2023-05-12T05:44:01;100954.42;;;14.84;85.79
28027;BME280;15344;52.342;-1.290;2023-05-12T05:46:27;100955.21;;;14.25;86.20
28027;BME280;15344;52.342;-1.290;2023-05-12T05:48:53;100958.10;;;15.02;84.05
28027;BME280;15344;52.342;-1.290;2023-05-12T05:51:19;100959.90;;;14.51;87.07
28027;BME280;15344;52.342;-1.290;2023-05-12T05:53:44;100956.35;;;15.22;85.50
28027;BME280;15344;52.342;-1.290;2023-05-12T05:56:09;100956.07;;;14.20;86.68
28027;BME280;15344;52.342;-1.290;2023-05-12T05:58:35;100961.71;;;14.78;86.37
28027;BME280;15344;52.342;-1.290;2023-05-12T06:01:00;100970.21;;;14.04;90.09
28027;BME280;15344;52.342;-1.290;2023-05-12T06:03:26;100976.48;;;14.48;88.84
28027;BME280;15344;52.342;-1.290;2023-05-12T06:05:52;100979.92;;;13.94;90.94
28027;BME280;15344;52.342;-1.290;2023-05-12T06:08:18;100979.36;;;15.11;87.89
28027;BME280;15344;52.342;-1.290;2023-05-12T06:10:42;100977.97;;;14.83;87.49
28027;BME280;15344;52.342;-1.290;2023-05-12T06:13:07;100980.45;;;14.64;86.54
28027;BME280;15344;52.342;-1.290;2023-05-12T06:15:33;100979.13;;;15.39;84.73
28027;BME280;15344;52.342;-1.290;2023-05-12T06:17:58;100981.39;;;14.97;86.01
28027;BME280;15344;52.342;-1.290;2023-05-12T06:20:23;100982.56;;;15.10;84.64
28027;BME280;15344;52.342;-1.290;2023-05-12T06:22:48;100985.11;;;14.17;88.69
28027;BME280;15344;52.342;-1.290;2023-05-12T06:25:13;100985.85;;;14.80;87.86
28027;BME280;15344;52.342;-1.290;2023-05-12T06:27:38;100987.63;;;14.99;89.54
28027;BME280;15344;52.342;-1.290;2023-05-12T06:30:05;100988.51;;;14.96;89.02
28027;BME280;15344;52.342;-1.290;2023-05-12T06:32:29;100994.00;;;15.72;86.14
28027;BME280;15344;52.342;-1.290;2023-05-12T06:34:54;100995.98;;;15.63;85.76
28027;BME280;15344;52.342;-1.290;2023-05-12T06:37:20;101002.83;;;15.10;86.38
28027;BME280;15344;52.342;-1.290;2023-05-12T06:39:45;101006.86;;;15.85;84.75
28027;BME280;15344;52.342;-1.290;2023-05-12T06:42:11;101010.31;;;15.51;85.78
28027;BME280;15344;52.342;-1.290;2023-05-12T06:44:37;101013.74;;;15.43;86.24
28027;BME280;15344;52.342;-1.290;2023-05-12T06:47:02;101012.62;;;15.38;85.84
28027;BME280;15344;52.342;-1.290;2023-05-12T06:49:28;101018.72;;;15.73;84.29
28027;BME280;15344;52.342;-1.290;2023-05-12T06:51:54;101021.54;;;15.48;86.38
28027;BME280;15344;52.342;-1.290;2023-05-12T06:54:19;101024.16;;;15.48;86.71
28027;BME280;15344;52.342;-1.290;2023-05-12T06:56:45;101025.25;;;15.20;87.35
28027;BME280;15344;52.342;-1.290;2023-05-12T06:59:10;101029.72;;;15.63;86.47
28027;BME280;15344;52.342;-1.290;2023-05-12T07:01:36;101030.62;;;14.93;88.15
28027;BME280;15344;52.342;-1.290;2023-05-12T07:04:01;101035.91;;;15.32;87.78
28027;BME280;15344;52.342;-1.290;2023-05-12T07:06:27;101039.03;;;14.08;93.06
28027;BME280;15344;52.342;-1.290;2023-05-12T07:08:53;101039.99;;;14.53;91.23
28027;BME280;15344;52.342;-1.290;2023-05-12T07:11:18;101042.27;;;14.80;89.52
28027;BME280;15344;52.342;-1.290;2023-05-12T07:13:44;101044.25;;;15.45;86.86
28027;BME280;15344;52.342;-1.290;2023-05-12T07:16:10;101043.21;;;15.64;84.50
28027;BME280;15344;52.342;-1.290;2023-05-12T07:18:35;101044.71;;;15.45;85.76
28027;BME280;15344;52.342;-1.290;2023-05-12T07:21:06;101043.35;;;15.34;85.94
28027;BME280;15344;52.342;-1.290;2023-05-12T07:23:26;101043.01;;;15.58;85.80
28027;BME280;15344;52.342;-1.290;2023-05-12T07:25:51;101046.52;;;15.44;88.72
28027;BME280;15344;52.342;-1.290;2023-05-12T07:28:17;101047.65;;;14.95;88.76
28027;BME280;15344;52.342;-1.290;2023-05-12T07:30:43;101055.34;;;14.42;90.66
28027;BME280;15344;52.342;-1.290;2023-05-12T07:33:09;101049.33;;;15.28;86.80
28027;BME280;15344;52.342;-1.290;2023-05-12T07:35:34;101056.05;;;15.39;85.99
28027;BME280;15344;52.342;-1.290;2023-05-12T07:38:00;101052.85;;;14.62;88.72
28027;BME280;15344;52.342;-1.290;2023-05-12T07:40:26;101054.20;;;14.45;89.65
28027;BME280;15344;52.342;-1.290;2023-05-12T07:42:51;101049.26;;;15.23;88.90
28027;BME280;15344;52.342;-1.290;2023-05-12T07:45:16;101049.82;;;14.83;89.78
28027;BME280;15344;52.342;-1.290;2023-05-12T07:47:42;101056.43;;;13.99;92.51
28027;BME280;15344;52.342;-1.290;2023-05-12T07:50:07;101052.39;;;13.96;92.47
28027;BME280;15344;52.342;-1.290;2023-05-12T07:52:33;101056.65;;;14.62;91.84
28027;BME280;15344;52.342;-1.290;2023-05-12T07:54:58;101054.98;;;15.67;85.98
28027;BME280;15344;52.342;-1.290;2023-05-12T07:57:24;101059.35;;;14.62;89.97
28027;BME280;15344;52.342;-1.290;2023-05-12T07:59:49;101054.45;;;14.84;87.41
28027;BME280;15344;52.342;-1.290;2023-05-12T08:02:15;101052.67;;;15.00;89.58
28027;BME280;15344;52.342;-1.290;2023-05-12T08:04:40;101058.60;;;15.56;86.24
28027;BME280;15344;52.342;-1.290;2023-05-12T08:07:07;101063.65;;;14.48;88.76
28027;BME280;15344;52.342;-1.290;2023-05-12T08:09:31;101060.55;;;14.68;88.94
28027;BME280;15344;52.342;-1.290;2023-05-12T08:11:57;101061.90;;;14.81;91.56
28027;BME280;15344;52.342;-1.290;2023-05-12T08:14:23;101053.76;;;15.13;90.37
28027;BME280;15344;52.342;-1.290;2023-05-12T08:16:48;101066.18;;;15.07;93.08
28027;BME280;15344;52.342;-1.290;2023-05-12T08:19:14;101068.22;;;14.47;94.40
28027;BME280;15344;52.342;-1.290;2023-05-12T08:21:40;101067.33;;;14.44;92.64
28027;BME280;15344;52.342;-1.290;2023-05-12T08:24:06;101067.33;;;14.47;92.79
28027;BME280;15344;52.342;-1.290;2023-05-12T08:26:31;101075.42;;;14.16;93.91
28027;BME280;15344;52.342;-1.290;2023-05-12T08:28:57;101076.16;;;14.79;92.38
28027;BME280;15344;52.342;-1.290;2023-05-12T08:31:22;101070.79;;;15.48;88.83
28027;BME280;15344;52.342;-1.290;2023-05-12T08:33:48;101072.16;;;14.94;91.66
28027;BME280;15344;52.342;-1.290;2023-05-12T08:36:12;101074.80;;;15.46;87.68
28027;BME280;15344;52.342;-1.290;2023-05-12T08:38:38;101078.42;;;15.47;89.19
28027;BME280;15344;52.342;-1.290;2023-05-12T08:41:11;101077.33;;;15.56;87.74
28027;BME280;15344;52.342;-1.290;2023-05-12T08:43:36;101076.53;;;15.93;87.36
28027;BME280;15344;52.342;-1.290;2023-05-12T08:45:55;101081.68;;;16.39;82.73
28027;BME280;15344;52.342;-1.290;2023-05-12T08:48:20;101084.29;;;17.11;79.35
28027;BME280;15344;52.342;-1.290;2023-05-12T08:50:49;101087.17;;;16.18;82.19
28027;BME280;15344;52.342;-1.290;2023-05-12T08:53:12;101095.39;;;15.33;84.61
28027;BME280;15344;52.342;-1.290;2023-05-12T08:55:41;101093.14;;;15.78;84.63
28027;BME280;15344;52.342;-1.290;2023-05-12T08:58:03;101093.98;;;15.36;87.04
28027;BME280;15344;52.342;-1.290;2023-05-12T09:00:28;101098.65;;;15.89;84.70
28027;BME280;15344;52.342;-1.290;2023-05-12T09:02:54;101098.72;;;15.00;86.61
28027;BME280;15344;52.342;-1.290;2023-05-12T09:05:19;101100.72;;;15.24;86.45
28027;BME280;15344;52.342;-1.290;2023-05-12T09:07:44;101101.10;;;15.77;84.95
28027;BME280;15344;52.342;-1.290;2023-05-12T09:10:14;101106.02;;;15.77;85.29
28027;BME280;15344;52.342;-1.290;2023-05-12T09:12:35;101102.98;;;15.04;87.96
28027;BME280;15344;52.342;-1.290;2023-05-12T09:15:04;101106.24;;;15.83;85.05
28027;BME280;15344;52.342;-1.290;2023-05-12T09:17:25;101106.73;;;16.07;85.24
28027;BME280;15344;52.342;-1.290;2023-05-12T09:19:51;101110.99;;;15.85;83.89
28027;BME280;15344;52.342;-1.290;2023-05-12T09:22:16;101113.74;;;16.29;83.12
28027;BME280;15344;52.342;-1.290;2023-05-12T09:24:41;101117.74;;;16.48;83.00
28027;BME280;15344;52.342;-1.290;2023-05-12T09:27:07;101114.77;;;16.08;82.75
28027;BME280;15344;52.342;-1.290;2023-05-12T09:29:33;101116.97;;;16.06;84.03
28027;BME280;15344;52.342;-1.290;2023-05-12T09:31:59;101114.84;;;15.96;83.70
28027;BME280;15344;52.342;-1.290;2023-05-12T09:34:26;101113.88;;;15.98;83.68
28027;BME280;15344;52.342;-1.290;2023-05-12T09:36:54;101119.93;;;15.65;86.16
28027;BME280;15344;52.342;-1.290;2023-05-12T09:39:13;101115.21;;;15.88;85.25
28027;BME280;15344;52.342;-1.290;2023-05-12T09:41:40;101114.42;;;16.22;83.78
28027;BME280;15344;52.342;-1.290;2023-05-12T09:44:05;101115.96;;;16.24;84.89
28027;BME280;15344;52.342;-1.290;2023-05-12T09:46:29;101119.59;;;16.50;82.18
28027;BME280;15344;52.342;-1.290;2023-05-12T09:48:56;101118.34;;;16.42;84.64
28027;BME280;15344;52.342;-1.290;2023-05-12T09:51:20;101117.86;;;16.33;85.04
28027;BME280;15344;52.342;-1.290;2023-05-12T09:53:46;101115.53;;;16.04;85.23
28027;BME280;15344;52.342;-1.290;2023-05-12T09:56:12;101119.24;;;16.65;82.14
28027;BME280;15344;52.342;-1.290;2023-05-12T09:58:40;101120.97;;;16.51;83.43
28027;BME280;15344;52.342;-1.290;2023-05-12T10:01:03;101121.39;;;16.93;82.62
28027;BME280;15344;52.342;-1.290;2023-05-12T10:03:29;101119.48;;;15.68;84.32
28027;BME280;15344;52.342;-1.290;2023-05-12T10:05:57;101122.45;;;15.96;83.09
28027;BME280;15344;52.342;-1.290;2023-05-12T10:08:22;101123.83;;;16.28;83.89
28027;BME280;15344;52.342;-1.290;2023-05-12T10:10:45;101128.56;;;16.12;83.20
28027;BME280;15344;52.342;-1.290;2023-05-12T10:13:09;101128.10;;;15.69;85.33
28027;BME280;15344;52.342;-1.290;2023-05-12T10:15:34;101125.03;;;15.69;87.22
28027;BME280;15344;52.342;-1.290;2023-05-12T10:18:00;101126.52;;;15.84;86.95
28027;BME280;15344;52.342;-1.290;2023-05-12T10:20:26;101124.86;;;15.84;85.55
28027;BME280;15344;52.342;-1.290;2023-05-12T10:22:51;101130.22;;;14.93;87.69
28027;BME280;15344;52.342;-1.290;2023-05-12T10:25:16;101127.29;;;15.78;86.34
28027;BME280;15344;52.342;-1.290;2023-05-12T10:27:41;101131.09;;;15.37;89.94
28027;BME280;15344;52.342;-1.290;2023-05-12T10:30:09;101126.13;;;15.63;85.59
28027;BME280;15344;52.342;-1.290;2023-05-12T10:32:32;101132.68;;;15.01;89.23
28027;BME280;15344;52.342;-1.290;2023-05-12T10:35:08;101129.16;;;15.88;87.91
28027;BME280;15344;52.342;-1.290;2023-05-12T10:37:23;101133.39;;;15.93;86.67
28027;BME280;15344;52.342;-1.290;2023-05-12T10:39:51;101125.46;;;16.08;85.96
28027;BME280;15344;52.342;-1.290;2023-05-12T10:42:19;101131.02;;;16.34;84.06
28027;BME280;15344;52.342;-1.290;2023-05-12T10:44:48;101125.72;;;16.54;84.68
28027;BME280;15344;52.342;-1.290;2023-05-12T10:47:11;101126.76;;;16.37;84.44
28027;BME280;15344;52.342;-1.290;2023-05-12T10:49:33;101127.44;;;16.45;83.41
28027;BME280;15344;52.342;-1.290;2023-05-12T10:51:59;101115.70;;;16.08;85.64
28027;BME280;15344;52.342;-1.290;2023-05-12T10:54:24;101117.92;;;16.40;82.89
28027;BME280;15344;52.342;-1.290;2023-05-12T10:56:48;101115.73;;;16.97;80.57
28027;BME280;15344;52.342;-1.290;2023-05-12T10:59:14;101115.80;;;17.54;79.34
28027;BME280;15344;52.342;-1.290;2023-05-12T11:01:39;101117.97;;;16.56;82.49
28027;BME280;15344;52.342;-1.290;2023-05-12T11:04:10;101115.35;;;17.18;82.07
28027;BME280;15344;52.342;-1.290;2023-05-12T11:06:29;101115.21;;;17.18;81.87
28027;BME280;15344;52.342;-1.290;2023-05-12T11:08:55;101117.67;;;17.25;80.27
28027;BME280;15344;52.342;-1.290;2023-05-12T11:11:21;101122.36;;;17.41;76.88
28027;BME280;15344;52.342;-1.290;2023-05-12T11:13:46;101116.50;;;17.52;76.08
28027;BME280;15344;52.342;-1.290;2023-05-12T11:16:11;101116.91;;;18.07;76.09
28027;BME280;15344;52.342;-1.290;2023-05-12T11:18:37;101116.66;;;17.12;76.12
28027;BME280;15344;52.342;-1.290;2023-05-12T11:21:08;101113.35;;;17.78;75.86
28027;BME280;15344;52.342;-1.290;2023-05-12T11:23:28;101111.09;;;17.33;75.23
28027;BME280;15344;52.342;-1.290;2023-05-12T11:25:54;101113.95;;;17.38;77.85
28027;BME280;15344;52.342;-1.290;2023-05-12T11:28:18;101118.08;;;17.28;78.03
28027;BME280;15344;52.342;-1.290;2023-05-12T11:30:49;101117.92;;;17.22;79.90
28027;BME280;15344;52.342;-1.290;2023-05-12T11:33:09;101120.96;;;17.29;78.91
28027;BME280;15344;52.342;-1.290;2023-05-12T11:35:35;101123.31;;;16.89;78.09
28027;BME280;15344;52.342;-1.290;2023-05-12T11:38:01;101121.85;;;17.64;76.40
28027;BME280;15344;52.342;-1.290;2023-05-12T11:40:27;101121.94;;;16.99;79.29
28027;BME280;15344;52.342;-1.290;2023-05-12T11:42:52;101124.91;;;15.73;83.98
28027;BME280;15344;52.342;-1.290;2023-05-12T11:45:20;101118.60;;;16.75;82.15
28027;BME280;15344;52.342;-1.290;2023-05-12T11:47:43;101121.40;;;16.81;83.19
28027;BME280;15344;52.342;-1.290;2023-05-12T11:50:08;101120.20;;;17.26;80.22
28027;BME280;15344;52.342;-1.290;2023-05-12T11:52:33;101116.77;;;17.51;79.50
28027;BME280;15344;52.342;-1.290;2023-05-12T11:54:59;101117.92;;;16.68;79.66
28027;BME280;15344;52.342;-1.290;2023-05-12T11:57:25;101117.55;;;17.62;78.88
28027;BME280;15344;52.342;-1.290;2023-05-12T11:59:55;101118.04;;;17.94;76.97
28027;BME280;15344;52.342;-1.290;2023-05-12T12:02:19;101123.36;;;18.31;75.19
28027;BME280;15344;52.342;-1.290;2023-05-12T12:04:41;101118.32;;;17.76;76.09
28027;BME280;15344;52.342;-1.290;2023-05-12T12:07:07;101125.37;;;17.14;78.22
28027;BME280;15344;52.342;-1.290;2023-05-12T12:09:33;101113.09;;;17.33;76.63
28027;BME280;15344;52.342;-1.290;2023-05-12T12:11:58;101117.15;;;17.19;76.21
28027;BME280;15344;52.342;-1.290;2023-05-12T12:14:23;101124.12;;;16.87;78.25
28027;BME280;15344;52.342;-1.290;2023-05-12T12:16:48;101127.37;;;16.26;77.28
28027;BME280;15344;52.342;-1.290;2023-05-12T12:19:13;101127.63;;;16.88;77.51
28027;BME280;15344;52.342;-1.290;2023-05-12T12:21:38;101132.15;;;15.86;80.46
28027;BME280;15344;52.342;-1.290;2023-05-12T12:24:04;101125.35;;;15.81;81.24
28027;BME280;15344;52.342;-1.290;2023-05-12T12:26:29;101133.32;;;16.94;79.52
28027;BME280;15344;52.342;-1.290;2023-05-12T12:28:54;101131.66;;;16.06;82.56
28027;BME280;15344;52.342;-1.290;2023-05-12T12:31:20;101123.91;;;16.21;81.07